sensor_id;sensor_type;location;lat;lon;timestamp;P1;durP1;ratioP1;P2;durP2;ratioP2
23432;SDS011;41331;45.412;10.992;2022-12-10T00:01:28;39.83;;;22.25;;
23432;SDS011;41331;45.412;10.992;2022-12-10T00:03:57;39.15;;;22.13;;
23432;SDS011;41331;45.412;10.992;2022-12-10T00:06:26;36.75;;;20.98;;
23432;SDS011;41331;45.412;10.992;2022-12-10T00:11:25;42.72;;;23.20;;
23432;SDS011;41331;45.412;10.992;2022-12-10T00:13:53;41.75;;;22.83;;
23432;SDS011;41331;45.412;10.992;2022-12-10T00:16:24;45.33;;;23.67;;
23432;SDS011;41331;45.412;10.992;2022-12-10T00:18:53;41.85;;;23.50;;
23432;SDS011;41331;45.412;10.992;2022-12-10T00:21:22;37.05;;;21.80;;
23432;SDS011;41331;45.412;10.992;2022-12-10T00:23:54;43.88;;;22.83;;
23432;SDS011;41331;45.412;10.992;2022-12-10T00:26:23;41.72;;;22.63;;
23432;SDS011;41331;45.412;10.992;2022-12-10T00:28:53;42.88;;;23.02;;
23432;SDS011;41331;45.412;10.992;2022-12-10T00:31:26;41.10;;;22.33;;
23432;SDS011;41331;45.412;10.992;2022-12-10T00:33:56;43.10;;;22.25;;
23432;SDS011;41331;45.412;10.992;2022-12-10T00:36:30;42.17;;;22.17;;
23432;SDS011;41331;45.412;10.992;2022-12-10T00:39:00;41.03;;;22.80;;
23432;SDS011;41331;45.412;10.992;2022-12-10T00:41:31;41.20;;;23.80;;
23432;SDS011;41331;45.412;10.992;2022-12-10T00:44:00;40.72;;;22.30;;
23432;SDS011;41331;45.412;10.992;2022-12-10T00:46:28;38.20;;;22.77;;
23432;SDS011;41331;45.412;10.992;2022-12-10T00:48:58;41.03;;;23.35;;
23432;SDS011;41331;45.412;10.992;2022-12-10T00:51:26;41.75;;;23.02;;
23432;SDS011;41331;45.412;10.992;2022-12-10T00:53:56;43.88;;;21.45;;
23432;SDS011;41331;45.412;10.992;2022-12-10T00:56:26;41.17;;;22.75;;
23432;SDS011;41331;45.412;10.992;2022-12-10T00:58:59;39.60;;;22.63;;
23432;SDS011;41331;45.412;10.992;2022-12-10T01:01:29;37.25;;;21.35;;
23432;SDS011;41331;45.412;10.992;2022-12-10T01:04:05;38.80;;;21.27;;
23432;SDS011;41331;45.412;10.992;2022-12-10T01:06:36;39.63;;;20.85;;
23432;SDS011;41331;45.412;10.992;2022-12-10T01:09:13;37.03;;;20.65;;
23432;SDS011;41331;45.412;10.992;2022-12-10T01:11:44;37.22;;;21.50;;
23432;SDS011;41331;45.412;10.992;2022-12-10T01:14:13;35.75;;;20.67;;
23432;SDS011;41331;45.412;10.992;2022-12-10T01:16:47;37.47;;;20.88;;
23432;SDS011;41331;45.412;10.992;2022-12-10T01:19:16;37.33;;;22.05;;
23432;SDS011;41331;45.412;10.992;2022-12-10T01:21:44;41.83;;;21.40;;
23432;SDS011;41331;45.412;10.992;2022-12-10T01:24:11;36.75;;;20.67;;
23432;SDS011;41331;45.412;10.992;2022-12-10T01:26:39;35.40;;;20.30;;
23432;SDS011;41331;45.412;10.992;2022-12-10T01:29:07;33.10;;;18.88;;
23432;SDS011;41331;45.412;10.992;2022-12-10T01:31:35;29.35;;;17.67;;
23432;SDS011;41331;45.412;10.992;2022-12-10T01:34:06;33.97;;;19.63;;
23432;SDS011;41331;45.412;10.992;2022-12-10T01:36:37;36.53;;;19.90;;
23432;SDS011;41331;45.412;10.992;2022-12-10T01:39:17;35.90;;;20.30;;
23432;SDS011;41331;45.412;10.992;2022-12-10T01:46:48;33.85;;;20.65;;
23432;SDS011;41331;45.412;10.992;2022-12-10T01:49:20;33.63;;;20.42;;
23432;SDS011;41331;45.412;10.992;2022-12-10T01:51:59;36.65;;;20.58;;
23432;SDS011;41331;45.412;10.992;2022-12-10T01:54:32;33.95;;;19.38;;
23432;SDS011;41331;45.412;10.992;2022-12-10T01:57:11;36.58;;;20.48;;
23432;SDS011;41331;45.412;10.992;2022-12-10T01:59:41;35.83;;;20.02;;
23432;SDS011;41331;45.412;10.992;2022-12-10T02:02:26;34.00;;;20.25;;
23432;SDS011;41331;45.412;10.992;2022-12-10T02:07:54;37.83;;;20.90;;
23432;SDS011;41331;45.412;10.992;2022-12-10T02:10:39;36.20;;;20.90;;
23432;SDS011;41331;45.412;10.992;2022-12-10T02:13:21;38.13;;;21.38;;
23432;SDS011;41331;45.412;10.992;2022-12-10T02:16:16;35.20;;;20.33;;
23432;SDS011;41331;45.412;10.992;2022-12-10T02:19:37;36.92;;;22.00;;
23432;SDS011;41331;45.412;10.992;2022-12-10T02:21:40;33.28;;;20.77;;
23432;SDS011;41331;45.412;10.992;2022-12-10T02:24:12;35.65;;;20.63;;
23432;SDS011;41331;45.412;10.992;2022-12-10T02:26:45;36.50;;;21.00;;
23432;SDS011;41331;45.412;10.992;2022-12-10T02:29:29;37.90;;;22.08;;
23432;SDS011;41331;45.412;10.992;2022-12-10T02:32:03;34.33;;;20.08;;
23432;SDS011;41331;45.412;10.992;2022-12-10T02:34:35;38.13;;;21.05;;
23432;SDS011;41331;45.412;10.992;2022-12-10T02:37:11;36.90;;;21.60;;
23432;SDS011;41331;45.412;10.992;2022-12-10T02:39:46;34.75;;;21.95;;
23432;SDS011;41331;45.412;10.992;2022-12-10T02:42:17;36.85;;;21.45;;
23432;SDS011;41331;45.412;10.992;2022-12-10T02:44:46;34.33;;;20.45;;
23432;SDS011;41331;45.412;10.992;2022-12-10T02:47:22;34.97;;;21.50;;
23432;SDS011;41331;45.412;10.992;2022-12-10T02:49:53;36.22;;;21.48;;
23432;SDS011;41331;45.412;10.992;2022-12-10T02:52:23;34.90;;;22.02;;
23432;SDS011;41331;45.412;10.992;2022-12-10T02:54:53;40.22;;;21.42;;
23432;SDS011;41331;45.412;10.992;2022-12-10T03:00:15;35.92;;;20.80;;
23432;SDS011;41331;45.412;10.992;2022-12-10T03:08:21;35.75;;;21.77;;
23432;SDS011;41331;45.412;10.992;2022-12-10T03:13:28;34.75;;;21.48;;
23432;SDS011;41331;45.412;10.992;2022-12-10T03:15:59;33.78;;;21.63;;
23432;SDS011;41331;45.412;10.992;2022-12-10T03:18:29;35.40;;;21.92;;
23432;SDS011;41331;45.412;10.992;2022-12-10T03:20:58;37.38;;;21.08;;
23432;SDS011;41331;45.412;10.992;2022-12-10T03:23:29;36.28;;;22.00;;
23432;SDS011;41331;45.412;10.992;2022-12-10T03:25:59;35.70;;;20.88;;
23432;SDS011;41331;45.412;10.992;2022-12-10T03:28:29;36.35;;;22.92;;
23432;SDS011;41331;45.412;10.992;2022-12-10T03:30:59;37.75;;;22.70;;
23432;SDS011;41331;45.412;10.992;2022-12-10T03:33:28;39.50;;;22.92;;
23432;SDS011;41331;45.412;10.992;2022-12-10T03:35:55;41.75;;;24.70;;
23432;SDS011;41331;45.412;10.992;2022-12-10T03:38:24;41.10;;;24.15;;
23432;SDS011;41331;45.412;10.992;2022-12-10T03:40:52;40.83;;;23.63;;
23432;SDS011;41331;45.412;10.992;2022-12-10T03:43:20;43.00;;;23.63;;
23432;SDS011;41331;45.412;10.992;2022-12-10T03:45:49;37.25;;;23.20;;
23432;SDS011;41331;45.412;10.992;2022-12-10T03:48:17;38.42;;;22.65;;
23432;SDS011;41331;45.412;10.992;2022-12-10T03:50:44;39.85;;;24.27;;
23432;SDS011;41331;45.412;10.992;2022-12-10T03:53:12;42.10;;;24.15;;
23432;SDS011;41331;45.412;10.992;2022-12-10T03:55:39;40.63;;;24.27;;
23432;SDS011;41331;45.412;10.992;2022-12-10T03:58:07;43.95;;;23.65;;
23432;SDS011;41331;45.412;10.992;2022-12-10T04:00:34;41.38;;;24.10;;
23432;SDS011;41331;45.412;10.992;2022-12-10T04:03:01;36.05;;;21.33;;
23432;SDS011;41331;45.412;10.992;2022-12-10T04:05:29;39.40;;;23.27;;
23432;SDS011;41331;45.412;10.992;2022-12-10T04:07:56;40.33;;;23.60;;
23432;SDS011;41331;45.412;10.992;2022-12-10T04:10:23;37.67;;;23.15;;
23432;SDS011;41331;45.412;10.992;2022-12-10T04:12:51;41.22;;;23.35;;
23432;SDS011;41331;45.412;10.992;2022-12-10T04:15:38;38.33;;;23.30;;
23432;SDS011;41331;45.412;10.992;2022-12-10T04:18:24;40.95;;;22.80;;
23432;SDS011;41331;45.412;10.992;2022-12-10T04:20:52;37.55;;;23.05;;
23432;SDS011;41331;45.412;10.992;2022-12-10T04:23:38;41.42;;;22.77;;
23432;SDS011;41331;45.412;10.992;2022-12-10T04:26:24;38.17;;;23.98;;
23432;SDS011;41331;45.412;10.992;2022-12-10T04:29:10;40.85;;;23.10;;
23432;SDS011;41331;45.412;10.992;2022-12-10T04:31:37;37.83;;;22.92;;
23432;SDS011;41331;45.412;10.992;2022-12-10T04:34:04;38.95;;;22.85;;
23432;SDS011;41331;45.412;10.992;2022-12-10T04:36:32;40.95;;;23.98;;
23432;SDS011;41331;45.412;10.992;2022-12-10T04:38:59;37.88;;;23.67;;
23432;SDS011;41331;45.412;10.992;2022-12-10T04:41:27;37.97;;;23.77;;
23432;SDS011;41331;45.412;10.992;2022-12-10T04:43:55;37.40;;;23.83;;
23432;SDS011;41331;45.412;10.992;2022-12-10T04:46:23;39.67;;;24.02;;
23432;SDS011;41331;45.412;10.992;2022-12-10T04:48:50;38.15;;;23.15;;
23432;SDS011;41331;45.412;10.992;2022-12-10T04:51:18;42.33;;;23.63;;
23432;SDS011;41331;45.412;10.992;2022-12-10T04:53:45;38.47;;;23.77;;
23432;SDS011;41331;45.412;10.992;2022-12-10T04:56:12;38.67;;;24.00;;
23432;SDS011;41331;45.412;10.992;2022-12-10T04:58:40;44.17;;;23.58;;
23432;SDS011;41331;45.412;10.992;2022-12-10T05:01:08;36.90;;;23.85;;
23432;SDS011;41331;45.412;10.992;2022-12-10T05:03:37;35.67;;;23.25;;
23432;SDS011;41331;45.412;10.992;2022-12-10T05:06:09;41.88;;;22.92;;
23432;SDS011;41331;45.412;10.992;2022-12-10T05:08:38;42.33;;;23.50;;
23432;SDS011;41331;45.412;10.992;2022-12-10T05:11:07;40.05;;;24.50;;
23432;SDS011;41331;45.412;10.992;2022-12-10T05:13:40;39.47;;;23.95;;
23432;SDS011;41331;45.412;10.992;2022-12-10T05:16:08;37.65;;;24.20;;
23432;SDS011;41331;45.412;10.992;2022-12-10T05:18:36;43.63;;;24.77;;
23432;SDS011;41331;45.412;10.992;2022-12-10T05:21:05;41.38;;;23.52;;
23432;SDS011;41331;45.412;10.992;2022-12-10T05:23:35;35.90;;;23.77;;
23432;SDS011;41331;45.412;10.992;2022-12-10T05:26:07;38.58;;;23.15;;
23432;SDS011;41331;45.412;10.992;2022-12-10T05:28:37;39.83;;;23.65;;
23432;SDS011;41331;45.412;10.992;2022-12-10T05:31:16;40.25;;;24.52;;
23432;SDS011;41331;45.412;10.992;2022-12-10T05:33:45;39.60;;;24.70;;
23432;SDS011;41331;45.412;10.992;2022-12-10T05:36:14;40.60;;;23.88;;
23432;SDS011;41331;45.412;10.992;2022-12-10T05:38:43;37.03;;;23.05;;
23432;SDS011;41331;45.412;10.992;2022-12-10T05:41:12;37.15;;;23.15;;
23432;SDS011;41331;45.412;10.992;2022-12-10T05:43:41;36.55;;;23.67;;
23432;SDS011;41331;45.412;10.992;2022-12-10T05:46:11;35.72;;;22.20;;
23432;SDS011;41331;45.412;10.992;2022-12-10T05:48:40;35.03;;;22.73;;
23432;SDS011;41331;45.412;10.992;2022-12-10T05:51:09;36.92;;;24.10;;
23432;SDS011;41331;45.412;10.992;2022-12-10T05:53:38;39.17;;;23.98;;
23432;SDS011;41331;45.412;10.992;2022-12-10T05:56:07;37.25;;;22.70;;
23432;SDS011;41331;45.412;10.992;2022-12-10T05:58:37;39.75;;;22.60;;
23432;SDS011;41331;45.412;10.992;2022-12-10T06:01:07;39.45;;;23.83;;
23432;SDS011;41331;45.412;10.992;2022-12-10T06:03:36;41.45;;;24.08;;
23432;SDS011;41331;45.412;10.992;2022-12-10T06:06:04;40.50;;;23.85;;
23432;SDS011;41331;45.412;10.992;2022-12-10T06:08:32;40.75;;;24.65;;
23432;SDS011;41331;45.412;10.992;2022-12-10T06:11:01;37.88;;;22.75;;
23432;SDS011;41331;45.412;10.992;2022-12-10T06:13:29;39.10;;;24.08;;
23432;SDS011;41331;45.412;10.992;2022-12-10T06:15:57;40.05;;;24.08;;
23432;SDS011;41331;45.412;10.992;2022-12-10T06:18:24;38.40;;;23.15;;
23432;SDS011;41331;45.412;10.992;2022-12-10T06:20:52;43.78;;;25.05;;
23432;SDS011;41331;45.412;10.992;2022-12-10T06:23:19;41.65;;;24.08;;
23432;SDS011;41331;45.412;10.992;2022-12-10T06:25:46;38.85;;;24.45;;
23432;SDS011;41331;45.412;10.992;2022-12-10T06:28:14;38.75;;;24.33;;
23432;SDS011;41331;45.412;10.992;2022-12-10T06:30:41;38.90;;;24.60;;
23432;SDS011;41331;45.412;10.992;2022-12-10T06:33:08;38.65;;;25.13;;
23432;SDS011;41331;45.412;10.992;2022-12-10T06:35:37;37.65;;;24.88;;
23432;SDS011;41331;45.412;10.992;2022-12-10T06:38:04;40.40;;;24.77;;
23432;SDS011;41331;45.412;10.992;2022-12-10T06:40:32;38.30;;;23.45;;
23432;SDS011;41331;45.412;10.992;2022-12-10T06:42:59;40.03;;;24.80;;
23432;SDS011;41331;45.412;10.992;2022-12-10T06:45:26;37.10;;;23.98;;
23432;SDS011;41331;45.412;10.992;2022-12-10T06:47:54;42.13;;;24.70;;
23432;SDS011;41331;45.412;10.992;2022-12-10T06:50:21;38.53;;;24.23;;
23432;SDS011;41331;45.412;10.992;2022-12-10T06:52:50;43.55;;;24.75;;
23432;SDS011;41331;45.412;10.992;2022-12-10T06:55:21;40.80;;;25.00;;
23432;SDS011;41331;45.412;10.992;2022-12-10T06:57:52;42.40;;;25.98;;
23432;SDS011;41331;45.412;10.992;2022-12-10T07:00:20;41.63;;;23.80;;
23432;SDS011;41331;45.412;10.992;2022-12-10T07:02:49;39.95;;;24.02;;
23432;SDS011;41331;45.412;10.992;2022-12-10T07:05:16;39.78;;;24.00;;
23432;SDS011;41331;45.412;10.992;2022-12-10T07:07:44;37.97;;;23.38;;
23432;SDS011;41331;45.412;10.992;2022-12-10T07:10:13;39.45;;;23.90;;
23432;SDS011;41331;45.412;10.992;2022-12-10T07:12:41;43.40;;;24.70;;
23432;SDS011;41331;45.412;10.992;2022-12-10T07:15:08;38.38;;;24.00;;
23432;SDS011;41331;45.412;10.992;2022-12-10T07:17:36;42.25;;;23.70;;
23432;SDS011;41331;45.412;10.992;2022-12-10T07:20:03;38.78;;;24.13;;
23432;SDS011;41331;45.412;10.992;2022-12-10T07:22:31;40.88;;;24.35;;
23432;SDS011;41331;45.412;10.992;2022-12-10T07:24:58;41.60;;;25.10;;
23432;SDS011;41331;45.412;10.992;2022-12-10T07:27:26;39.20;;;23.98;;
23432;SDS011;41331;45.412;10.992;2022-12-10T07:29:54;41.08;;;23.40;;
23432;SDS011;41331;45.412;10.992;2022-12-10T07:32:21;41.67;;;25.10;;
23432;SDS011;41331;45.412;10.992;2022-12-10T07:34:50;40.97;;;23.80;;
23432;SDS011;41331;45.412;10.992;2022-12-10T07:37:19;43.60;;;26.92;;
23432;SDS011;41331;45.412;10.992;2022-12-10T07:39:46;41.95;;;24.45;;
23432;SDS011;41331;45.412;10.992;2022-12-10T07:42:13;43.40;;;25.05;;
23432;SDS011;41331;45.412;10.992;2022-12-10T07:44:42;37.08;;;24.33;;
23432;SDS011;41331;45.412;10.992;2022-12-10T07:47:15;40.63;;;24.40;;
23432;SDS011;41331;45.412;10.992;2022-12-10T07:49:43;43.38;;;24.63;;
23432;SDS011;41331;45.412;10.992;2022-12-10T07:52:10;39.60;;;24.85;;
23432;SDS011;41331;45.412;10.992;2022-12-10T07:54:38;41.13;;;25.52;;
23432;SDS011;41331;45.412;10.992;2022-12-10T07:57:05;42.40;;;25.52;;
23432;SDS011;41331;45.412;10.992;2022-12-10T07:59:33;41.25;;;25.63;;
23432;SDS011;41331;45.412;10.992;2022-12-10T08:02:00;40.97;;;25.58;;
23432;SDS011;41331;45.412;10.992;2022-12-10T08:04:34;42.58;;;25.10;;
23432;SDS011;41331;45.412;10.992;2022-12-10T08:07:01;41.25;;;24.13;;
23432;SDS011;41331;45.412;10.992;2022-12-10T08:09:31;42.15;;;25.02;;
23432;SDS011;41331;45.412;10.992;2022-12-10T08:11:58;39.58;;;24.08;;
23432;SDS011;41331;45.412;10.992;2022-12-10T08:14:26;41.95;;;25.05;;
23432;SDS011;41331;45.412;10.992;2022-12-10T08:16:53;41.20;;;25.73;;
23432;SDS011;41331;45.412;10.992;2022-12-10T08:19:21;39.28;;;25.02;;
23432;SDS011;41331;45.412;10.992;2022-12-10T08:21:56;41.97;;;25.15;;
23432;SDS011;41331;45.412;10.992;2022-12-10T08:24:23;39.13;;;24.95;;
23432;SDS011;41331;45.412;10.992;2022-12-10T08:26:50;44.08;;;26.27;;
23432;SDS011;41331;45.412;10.992;2022-12-10T08:29:18;42.97;;;25.15;;
23432;SDS011;41331;45.412;10.992;2022-12-10T08:31:45;42.92;;;25.40;;
23432;SDS011;41331;45.412;10.992;2022-12-10T08:34:14;39.75;;;24.27;;
23432;SDS011;41331;45.412;10.992;2022-12-10T08:36:43;45.22;;;25.80;;
23432;SDS011;41331;45.412;10.992;2022-12-10T08:39:13;42.15;;;26.23;;
23432;SDS011;41331;45.412;10.992;2022-12-10T08:41:44;43.63;;;24.73;;
23432;SDS011;41331;45.412;10.992;2022-12-10T08:44:12;37.85;;;23.33;;
23432;SDS011;41331;45.412;10.992;2022-12-10T08:46:40;43.15;;;24.35;;
23432;SDS011;41331;45.412;10.992;2022-12-10T08:49:07;39.60;;;23.02;;
23432;SDS011;41331;45.412;10.992;2022-12-10T08:51:35;46.85;;;25.77;;
23432;SDS011;41331;45.412;10.992;2022-12-10T08:54:03;39.33;;;24.00;;
23432;SDS011;41331;45.412;10.992;2022-12-10T08:56:30;44.95;;;23.33;;
23432;SDS011;41331;45.412;10.992;2022-12-10T08:58:58;44.35;;;25.25;;
23432;SDS011;41331;45.412;10.992;2022-12-10T09:01:26;50.00;;;27.92;;
23432;SDS011;41331;45.412;10.992;2022-12-10T09:03:54;49.15;;;26.90;;
23432;SDS011;41331;45.412;10.992;2022-12-10T09:06:22;46.25;;;25.70;;
23432;SDS011;41331;45.412;10.992;2022-12-10T09:08:53;47.90;;;25.63;;
23432;SDS011;41331;45.412;10.992;2022-12-10T09:11:22;46.40;;;25.65;;
23432;SDS011;41331;45.412;10.992;2022-12-10T09:13:52;46.05;;;25.92;;
23432;SDS011;41331;45.412;10.992;2022-12-10T09:16:21;47.38;;;26.88;;
23432;SDS011;41331;45.412;10.992;2022-12-10T09:18:54;47.03;;;25.73;;
23432;SDS011;41331;45.412;10.992;2022-12-10T09:21:22;41.97;;;24.67;;
23432;SDS011;41331;45.412;10.992;2022-12-10T09:23:50;43.25;;;25.75;;
23432;SDS011;41331;45.412;10.992;2022-12-10T09:26:21;47.38;;;26.02;;
23432;SDS011;41331;45.412;10.992;2022-12-10T09:28:52;47.22;;;24.92;;
23432;SDS011;41331;45.412;10.992;2022-12-10T09:31:20;47.13;;;25.88;;
23432;SDS011;41331;45.412;10.992;2022-12-10T09:33:48;44.03;;;26.98;;
23432;SDS011;41331;45.412;10.992;2022-12-10T09:36:19;45.40;;;26.15;;
23432;SDS011;41331;45.412;10.992;2022-12-10T09:38:48;45.45;;;25.88;;
23432;SDS011;41331;45.412;10.992;2022-12-10T09:44:11;44.20;;;25.42;;
23432;SDS011;41331;45.412;10.992;2022-12-10T09:49:21;43.20;;;25.67;;
23432;SDS011;41331;45.412;10.992;2022-12-10T09:51:53;41.00;;;24.48;;
23432;SDS011;41331;45.412;10.992;2022-12-10T09:54:38;43.63;;;24.40;;
23432;SDS011;41331;45.412;10.992;2022-12-10T09:57:15;43.45;;;25.35;;
23432;SDS011;41331;45.412;10.992;2022-12-10T09:59:49;41.90;;;25.10;;
23432;SDS011;41331;45.412;10.992;2022-12-10T10:05:01;41.17;;;23.95;;
23432;SDS011;41331;45.412;10.992;2022-12-10T10:07:34;41.20;;;23.58;;
23432;SDS011;41331;45.412;10.992;2022-12-10T10:10:07;40.35;;;22.90;;
23432;SDS011;41331;45.412;10.992;2022-12-10T10:12:46;40.03;;;23.67;;
23432;SDS011;41331;45.412;10.992;2022-12-10T10:15:15;39.90;;;23.30;;
23432;SDS011;41331;45.412;10.992;2022-12-10T10:17:45;45.90;;;24.98;;
23432;SDS011;41331;45.412;10.992;2022-12-10T10:20:14;41.10;;;23.05;;
23432;SDS011;41331;45.412;10.992;2022-12-10T10:22:42;40.47;;;23.08;;
23432;SDS011;41331;45.412;10.992;2022-12-10T10:25:13;42.60;;;24.60;;
23432;SDS011;41331;45.412;10.992;2022-12-10T10:27:42;41.42;;;23.65;;
23432;SDS011;41331;45.412;10.992;2022-12-10T10:30:19;43.60;;;22.90;;
23432;SDS011;41331;45.412;10.992;2022-12-10T10:32:50;40.42;;;23.42;;
23432;SDS011;41331;45.412;10.992;2022-12-10T10:38:36;41.97;;;24.00;;
23432;SDS011;41331;45.412;10.992;2022-12-10T10:40:54;43.70;;;23.77;;
23432;SDS011;41331;45.412;10.992;2022-12-10T10:43:24;44.10;;;24.63;;
23432;SDS011;41331;45.412;10.992;2022-12-10T10:45:56;40.55;;;24.58;;
23432;SDS011;41331;45.412;10.992;2022-12-10T10:48:27;43.20;;;23.63;;
23432;SDS011;41331;45.412;10.992;2022-12-10T10:51:04;40.55;;;22.73;;
23432;SDS011;41331;45.412;10.992;2022-12-10T10:56:11;40.10;;;23.73;;
23432;SDS011;41331;45.412;10.992;2022-12-10T11:04:55;39.17;;;22.65;;
23432;SDS011;41331;45.412;10.992;2022-12-10T11:07:37;35.83;;;22.40;;
23432;SDS011;41331;45.412;10.992;2022-12-10T11:10:17;39.72;;;23.83;;
23432;SDS011;41331;45.412;10.992;2022-12-10T11:12:57;37.83;;;21.77;;
23432;SDS011;41331;45.412;10.992;2022-12-10T11:15:35;38.58;;;22.40;;
23432;SDS011;41331;45.412;10.992;2022-12-10T11:21:19;37.60;;;22.13;;
23432;SDS011;41331;45.412;10.992;2022-12-10T11:23:52;39.67;;;22.65;;
23432;SDS011;41331;45.412;10.992;2022-12-10T11:29:29;36.78;;;22.10;;
23432;SDS011;41331;45.412;10.992;2022-12-10T11:32:32;40.67;;;23.25;;
23432;SDS011;41331;45.412;10.992;2022-12-10T11:35:37;38.90;;;22.98;;
23432;SDS011;41331;45.412;10.992;2022-12-10T11:38:29;42.88;;;24.83;;
23432;SDS011;41331;45.412;10.992;2022-12-10T11:49:32;43.72;;;23.55;;
23432;SDS011;41331;45.412;10.992;2022-12-10T11:54:56;41.15;;;24.13;;
23432;SDS011;41331;45.412;10.992;2022-12-10T12:00:27;45.63;;;25.42;;
23432;SDS011;41331;45.412;10.992;2022-12-10T12:03:13;42.22;;;25.27;;
23432;SDS011;41331;45.412;10.992;2022-12-10T12:16:32;42.05;;;25.90;;
23432;SDS011;41331;45.412;10.992;2022-12-10T12:19:07;40.67;;;24.52;;
23432;SDS011;41331;45.412;10.992;2022-12-10T12:21:40;42.60;;;25.27;;
23432;SDS011;41331;45.412;10.992;2022-12-10T12:26:53;38.90;;;23.35;;
23432;SDS011;41331;45.412;10.992;2022-12-10T12:32:11;40.08;;;24.10;;
23432;SDS011;41331;45.412;10.992;2022-12-10T12:34:58;39.03;;;22.80;;
23432;SDS011;41331;45.412;10.992;2022-12-10T12:38:16;37.97;;;22.77;;
23432;SDS011;41331;45.412;10.992;2022-12-10T12:40:33;34.92;;;21.92;;
23432;SDS011;41331;45.412;10.992;2022-12-10T12:43:12;35.47;;;22.02;;
23432;SDS011;41331;45.412;10.992;2022-12-10T12:45:51;35.08;;;21.33;;
23432;SDS011;41331;45.412;10.992;2022-12-10T12:51:02;33.70;;;21.95;;
23432;SDS011;41331;45.412;10.992;2022-12-10T12:53:36;33.40;;;21.48;;
23432;SDS011;41331;45.412;10.992;2022-12-10T13:01:51;31.05;;;19.95;;
23432;SDS011;41331;45.412;10.992;2022-12-10T13:04:23;31.33;;;19.27;;
23432;SDS011;41331;45.412;10.992;2022-12-10T13:09:44;24.60;;;16.10;;
23432;SDS011;41331;45.412;10.992;2022-12-10T13:17:27;27.45;;;17.23;;
23432;SDS011;41331;45.412;10.992;2022-12-10T13:23:01;25.20;;;17.20;;
23432;SDS011;41331;45.412;10.992;2022-12-10T13:26:19;28.38;;;16.52;;
23432;SDS011;41331;45.412;10.992;2022-12-10T13:41:33;26.77;;;16.75;;
23432;SDS011;41331;45.412;10.992;2022-12-10T13:47:05;26.38;;;16.63;;
23432;SDS011;41331;45.412;10.992;2022-12-10T13:49:56;24.90;;;16.42;;
23432;SDS011;41331;45.412;10.992;2022-12-10T13:55:25;23.25;;;15.57;;
23432;SDS011;41331;45.412;10.992;2022-12-10T13:58:08;24.13;;;14.60;;
23432;SDS011;41331;45.412;10.992;2022-12-10T14:06:34;22.70;;;14.13;;
23432;SDS011;41331;45.412;10.992;2022-12-10T14:09:40;20.90;;;13.50;;
23432;SDS011;41331;45.412;10.992;2022-12-10T14:12:06;20.10;;;12.18;;
23432;SDS011;41331;45.412;10.992;2022-12-10T14:14:42;19.05;;;11.65;;
23432;SDS011;41331;45.412;10.992;2022-12-10T14:17:14;18.27;;;11.82;;
23432;SDS011;41331;45.412;10.992;2022-12-10T14:19:46;17.13;;;11.27;;
23432;SDS011;41331;45.412;10.992;2022-12-10T14:22:16;18.83;;;12.00;;
23432;SDS011;41331;45.412;10.992;2022-12-10T14:24:47;17.60;;;12.25;;
23432;SDS011;41331;45.412;10.992;2022-12-10T14:27:18;17.08;;;12.02;;
23432;SDS011;41331;45.412;10.992;2022-12-10T14:29:48;20.80;;;12.48;;
23432;SDS011;41331;45.412;10.992;2022-12-10T14:32:21;20.50;;;13.30;;
23432;SDS011;41331;45.412;10.992;2022-12-10T14:34:56;19.90;;;13.32;;
23432;SDS011;41331;45.412;10.992;2022-12-10T14:37:26;19.70;;;13.27;;
23432;SDS011;41331;45.412;10.992;2022-12-10T14:39:56;19.88;;;13.05;;
23432;SDS011;41331;45.412;10.992;2022-12-10T14:42:24;20.40;;;13.63;;
23432;SDS011;41331;45.412;10.992;2022-12-10T14:44:58;20.23;;;13.43;;
23432;SDS011;41331;45.412;10.992;2022-12-10T14:47:35;20.83;;;14.10;;
23432;SDS011;41331;45.412;10.992;2022-12-10T14:50:15;20.08;;;13.82;;
23432;SDS011;41331;45.412;10.992;2022-12-10T14:52:44;28.10;;;15.43;;
23432;SDS011;41331;45.412;10.992;2022-12-10T14:55:19;24.58;;;15.25;;
23432;SDS011;41331;45.412;10.992;2022-12-10T14:58:01;26.38;;;16.25;;
23432;SDS011;41331;45.412;10.992;2022-12-10T15:00:31;27.45;;;17.42;;
23432;SDS011;41331;45.412;10.992;2022-12-10T15:03:01;29.05;;;17.23;;
23432;SDS011;41331;45.412;10.992;2022-12-10T15:05:36;29.73;;;19.00;;
23432;SDS011;41331;45.412;10.992;2022-12-10T15:08:13;29.17;;;17.65;;
23432;SDS011;41331;45.412;10.992;2022-12-10T15:10:43;33.33;;;18.98;;
23432;SDS011;41331;45.412;10.992;2022-12-10T15:13:21;33.28;;;20.67;;
23432;SDS011;41331;45.412;10.992;2022-12-10T15:15:51;36.35;;;22.05;;
23432;SDS011;41331;45.412;10.992;2022-12-10T15:18:21;37.60;;;22.60;;
23432;SDS011;41331;45.412;10.992;2022-12-10T15:21:03;35.60;;;21.30;;
23432;SDS011;41331;45.412;10.992;2022-12-10T15:23:33;39.95;;;23.27;;
23432;SDS011;41331;45.412;10.992;2022-12-10T15:26:21;42.67;;;24.75;;
23432;SDS011;41331;45.412;10.992;2022-12-10T15:29:14;42.28;;;23.60;;
23432;SDS011;41331;45.412;10.992;2022-12-10T15:31:55;40.67;;;24.52;;
23432;SDS011;41331;45.412;10.992;2022-12-10T15:34:45;41.78;;;23.92;;
23432;SDS011;41331;45.412;10.992;2022-12-10T15:37:19;45.67;;;24.15;;
23432;SDS011;41331;45.412;10.992;2022-12-10T15:39:58;40.97;;;23.45;;
23432;SDS011;41331;45.412;10.992;2022-12-10T15:47:47;40.67;;;23.75;;
23432;SDS011;41331;45.412;10.992;2022-12-10T15:50:15;41.85;;;23.02;;
23432;SDS011;41331;45.412;10.992;2022-12-10T15:52:42;40.50;;;23.33;;
23432;SDS011;41331;45.412;10.992;2022-12-10T15:55:13;38.92;;;23.17;;
23432;SDS011;41331;45.412;10.992;2022-12-10T15:57:43;40.40;;;22.73;;
23432;SDS011;41331;45.412;10.992;2022-12-10T16:00:23;44.70;;;24.23;;
23432;SDS011;41331;45.412;10.992;2022-12-10T16:05:34;41.60;;;23.83;;
23432;SDS011;41331;45.412;10.992;2022-12-10T16:10:47;40.97;;;23.35;;
23432;SDS011;41331;45.412;10.992;2022-12-10T16:15:48;45.40;;;24.00;;
23432;SDS011;41331;45.412;10.992;2022-12-10T16:18:21;46.08;;;24.80;;
23432;SDS011;41331;45.412;10.992;2022-12-10T16:20:49;43.83;;;24.58;;
23432;SDS011;41331;45.412;10.992;2022-12-10T16:23:17;46.70;;;25.27;;
23432;SDS011;41331;45.412;10.992;2022-12-10T16:25:45;46.13;;;25.38;;
23432;SDS011;41331;45.412;10.992;2022-12-10T16:28:15;46.28;;;24.75;;
23432;SDS011;41331;45.412;10.992;2022-12-10T16:30:48;47.58;;;26.13;;
23432;SDS011;41331;45.412;10.992;2022-12-10T16:33:18;48.88;;;26.23;;
23432;SDS011;41331;45.412;10.992;2022-12-10T16:35:47;50.92;;;27.67;;
23432;SDS011;41331;45.412;10.992;2022-12-10T16:38:15;46.72;;;24.70;;
23432;SDS011;41331;45.412;10.992;2022-12-10T16:40:44;47.83;;;26.55;;
23432;SDS011;41331;45.412;10.992;2022-12-10T16:43:17;49.35;;;26.48;;
23432;SDS011;41331;45.412;10.992;2022-12-10T16:45:46;47.03;;;26.30;;
23432;SDS011;41331;45.412;10.992;2022-12-10T16:48:14;47.55;;;26.75;;
23432;SDS011;41331;45.412;10.992;2022-12-10T16:50:43;50.03;;;26.40;;